createdAt,value
2023-05-09T00:01:07.776Z,9.90
2023-05-09T00:03:35.900Z,9.90
2023-05-09T00:06:04.285Z,9.80
2023-05-09T00:08:32.283Z,9.70
2023-05-09T00:11:00.149Z,9.70
2023-05-09T00:13:28.451Z,9.60
2023-05-09T00:15:58.450Z,9.70
2023-05-09T00:18:28.324Z,9.50
2023-05-09T00:20:56.710Z,9.60
2023-05-09T00:23:24.625Z,9.60
2023-05-09T00:25:52.556Z,9.60
2023-05-09T00:28:20.467Z,9.50
2023-05-09T00:30:48.336Z,9.40
2023-05-09T00:33:16.364Z,9.30
2023-05-09T00:35:45.628Z,9.30
2023-05-09T00:38:13.503Z,9.20
2023-05-09T00:40:41.436Z,9.10
2023-05-09T00:43:09.311Z,9.10
2023-05-09T00:45:37.242Z,9.10
2023-05-09T00:48:06.083Z,9.00
2023-05-09T00:50:34.481Z,8.80
2023-05-09T00:53:04.748Z,8.80
2023-05-09T00:55:33.106Z,8.80
2023-05-09T00:58:01.033Z,8.80
2023-05-09T01:00:29.370Z,8.70
2023-05-09T01:02:58.462Z,8.70
2023-05-09T01:05:31.492Z,8.60
2023-05-09T01:08:11.086Z,8.60
2023-05-09T01:10:45.161Z,8.50
2023-05-09T01:13:23.494Z,8.60
2023-05-09T01:15:59.320Z,8.50
2023-05-09T01:18:33.698Z,8.50
2023-05-09T01:21:07.611Z,8.50
2023-05-09T01:23:57.654Z,8.50
2023-05-09T01:26:35.914Z,8.40
2023-05-09T01:29:35.168Z,8.30
2023-05-09T01:32:08.349Z,8.20
2023-05-09T01:34:39.108Z,8.10
2023-05-09T01:37:09.427Z,8.10
2023-05-09T01:39:41.241Z,8.20
2023-05-09T01:42:12.028Z,8.20
2023-05-09T01:44:43.485Z,8.20
2023-05-09T01:47:12.802Z,8.20
2023-05-09T01:49:43.801Z,8.20
2023-05-09T01:52:15.508Z,8.10
2023-05-09T01:54:44.815Z,8.10
2023-05-09T01:57:15.486Z,7.90
2023-05-09T01:59:46.167Z,8.00
2023-05-09T02:02:14.717Z,8.10
2023-05-09T02:04:44.071Z,8.00
2023-05-09T02:07:13.545Z,8.00
2023-05-09T02:09:41.482Z,8.00
2023-05-09T02:12:09.375Z,8.00
2023-05-09T02:14:37.315Z,8.00
2023-05-09T02:17:09.485Z,8.00
2023-05-09T02:19:37.468Z,8.00
2023-05-09T02:22:05.714Z,8.00
2023-05-09T02:24:35.029Z,8.00
2023-05-09T02:27:04.472Z,8.00
2023-05-09T02:29:40.246Z,8.00
2023-05-09T02:32:12.562Z,7.90
2023-05-09T02:34:41.925Z,7.90
2023-05-09T02:37:11.252Z,7.90
2023-05-09T02:39:39.172Z,8.00
2023-05-09T02:42:12.438Z,7.90
2023-05-09T02:44:40.420Z,7.90
2023-05-09T02:47:10.346Z,7.80
2023-05-09T02:49:38.260Z,7.80
2023-05-09T02:52:06.660Z,7.70
2023-05-09T02:54:34.579Z,7.80
2023-05-09T02:57:02.467Z,7.80
2023-05-09T02:59:30.560Z,7.80
2023-05-09T03:02:02.060Z,7.80
2023-05-09T03:04:32.334Z,7.80
2023-05-09T03:07:00.765Z,7.80
2023-05-09T03:09:32.796Z,7.80
2023-05-09T03:12:01.463Z,7.80
2023-05-09T03:14:29.425Z,7.80
2023-05-09T03:16:57.541Z,7.70
2023-05-09T03:19:36.134Z,7.60
2023-05-09T03:22:04.239Z,7.70
2023-05-09T03:24:36.479Z,7.60
2023-05-09T03:27:04.493Z,7.50
2023-05-09T03:29:32.404Z,7.50
2023-05-09T03:32:00.315Z,7.50
2023-05-09T03:34:28.171Z,7.60
2023-05-09T03:36:57.704Z,7.70
2023-05-09T03:39:26.280Z,7.80
2023-05-09T03:41:57.735Z,7.80
2023-05-09T03:44:26.376Z,7.80
2023-05-09T03:46:54.239Z,7.80
2023-05-09T03:49:22.969Z,7.90
2023-05-09T03:51:54.098Z,7.80
2023-05-09T03:54:23.626Z,7.80
2023-05-09T03:56:52.398Z,7.70
2023-05-09T03:59:20.816Z,7.70
2023-05-09T04:01:48.879Z,7.80
2023-05-09T04:04:18.111Z,7.90
2023-05-09T04:06:46.427Z,7.90
2023-05-09T04:09:16.480Z,7.90
2023-05-09T04:11:46.588Z,7.90
2023-05-09T04:14:16.214Z,7.80
2023-05-09T04:16:44.249Z,7.80
2023-05-09T04:19:12.278Z,7.90
2023-05-09T04:21:40.470Z,8.10
2023-05-09T04:24:09.895Z,8.10
2023-05-09T04:26:47.904Z,8.20
2023-05-09T04:29:19.565Z,8.50
2023-05-09T04:31:52.859Z,8.60
2023-05-09T04:34:23.730Z,8.80
2023-05-09T04:36:52.021Z,9.10
2023-05-09T04:39:21.742Z,9.40
2023-05-09T04:42:02.997Z,9.70
2023-05-09T04:44:31.228Z,10.20
2023-05-09T04:47:01.106Z,10.80
2023-05-09T04:49:29.305Z,11.20
2023-05-09T04:51:57.913Z,11.00
2023-05-09T04:54:27.041Z,10.70
2023-05-09T04:57:03.141Z,11.00
2023-05-09T04:59:38.198Z,11.50
2023-05-09T05:02:06.809Z,12.50
2023-05-09T05:04:35.168Z,13.10
2023-05-09T05:07:05.128Z,13.60
2023-05-09T05:09:33.753Z,14.30
2023-05-09T05:12:03.635Z,15.00
2023-05-09T05:14:33.178Z,15.40
2023-05-09T05:17:02.687Z,16.10
2023-05-09T05:19:30.711Z,16.50
2023-05-09T05:21:59.256Z,16.70
2023-05-09T05:24:28.135Z,17.20
2023-05-09T05:26:57.553Z,17.80
2023-05-09T05:29:26.496Z,18.30
2023-05-09T05:31:54.452Z,18.30
2023-05-09T05:34:24.033Z,18.60
2023-05-09T05:36:52.264Z,18.60
2023-05-09T05:39:20.270Z,18.70
2023-05-09T05:41:49.618Z,19.10
2023-05-09T05:44:17.849Z,19.10
2023-05-09T05:46:46.408Z,19.80
2023-05-09T05:49:14.435Z,19.60
2023-05-09T05:51:43.634Z,20.00
2023-05-09T05:54:12.967Z,21.30
2023-05-09T05:56:43.498Z,20.70
2023-05-09T05:59:13.387Z,20.60
2023-05-09T06:01:41.810Z,20.80
2023-05-09T06:04:10.347Z,22.70
2023-05-09T06:06:38.439Z,22.80
2023-05-09T06:09:07.764Z,23.00
2023-05-09T06:11:36.814Z,24.30
2023-05-09T06:14:04.972Z,24.30
2023-05-09T06:16:33.595Z,24.50
2023-05-09T06:19:01.457Z,24.90
2023-05-09T06:21:29.329Z,24.40
2023-05-09T06:24:09.866Z,25.70
2023-05-09T06:26:41.464Z,26.30
2023-05-09T06:29:10.858Z,25.00
2023-05-09T06:31:40.745Z,26.40
2023-05-09T06:34:08.948Z,26.90
2023-05-09T06:36:36.944Z,26.40
2023-05-09T06:39:05.160Z,26.30
2023-05-09T06:41:33.076Z,26.10
2023-05-09T06:44:03.100Z,27.00
2023-05-09T06:46:31.064Z,29.00
2023-05-09T06:49:01.618Z,29.50
2023-05-09T06:51:29.764Z,29.00
2023-05-09T06:53:57.857Z,29.50
2023-05-09T06:56:26.875Z,31.20
2023-05-09T06:58:55.073Z,31.00
2023-05-09T07:01:25.857Z,32.20
2023-05-09T07:03:53.908Z,32.60
2023-05-09T07:06:21.915Z,32.30
2023-05-09T07:08:50.086Z,32.30
2023-05-09T07:11:18.198Z,31.80
2023-05-09T07:13:46.153Z,28.50
2023-05-09T07:16:14.483Z,28.50
2023-05-09T07:18:43.693Z,29.50
2023-05-09T07:21:11.606Z,28.40
2023-05-09T07:23:39.436Z,28.90
2023-05-09T07:26:07.392Z,28.60
2023-05-09T07:28:35.528Z,28.40
2023-05-09T07:31:03.444Z,28.70
2023-05-09T07:33:31.461Z,28.90
2023-05-09T07:36:01.046Z,28.30
2023-05-09T07:38:28.972Z,28.40
2023-05-09T07:40:56.851Z,29.00
2023-05-09T07:43:24.888Z,29.60
2023-05-09T07:45:52.797Z,27.70
2023-05-09T07:48:20.808Z,29.00
2023-05-09T07:50:49.644Z,29.10
2023-05-09T07:53:18.896Z,30.30
2023-05-09T07:55:48.282Z,30.70
2023-05-09T07:58:16.626Z,30.70
2023-05-09T08:00:44.540Z,30.50
2023-05-09T08:03:12.704Z,31.20
2023-05-09T08:05:40.937Z,30.00
2023-05-09T08:08:08.842Z,30.70
2023-05-09T08:10:38.089Z,30.60
2023-05-09T08:13:06.106Z,30.70
2023-05-09T08:15:34.029Z,32.40
2023-05-09T08:18:02.175Z,33.90
2023-05-09T08:20:32.238Z,35.50
2023-05-09T08:23:00.116Z,35.60
2023-05-09T08:25:28.222Z,35.90
2023-05-09T08:27:57.477Z,36.60
2023-05-09T08:30:25.672Z,37.80
2023-05-09T08:32:53.652Z,38.40
2023-05-09T08:35:22.246Z,39.70
2023-05-09T08:37:50.369Z,38.00
2023-05-09T08:40:18.507Z,39.30
2023-05-09T08:42:46.840Z,37.50
2023-05-09T08:45:21.005Z,36.40
2023-05-09T08:47:49.314Z,36.90
2023-05-09T08:50:17.872Z,38.10
2023-05-09T08:52:46.122Z,36.30
2023-05-09T08:55:15.285Z,37.30
2023-05-09T08:57:43.220Z,38.00
2023-05-09T09:00:14.033Z,39.30
2023-05-09T09:02:44.785Z,38.30
2023-05-09T09:05:28.644Z,37.30
2023-05-09T09:08:01.680Z,37.00
2023-05-09T09:10:32.926Z,34.30
2023-05-09T09:13:01.802Z,35.30
2023-05-09T09:15:32.823Z,35.50
2023-05-09T09:18:08.974Z,36.40
2023-05-09T09:20:41.528Z,34.80
2023-05-09T09:23:11.448Z,36.10
2023-05-09T09:25:39.563Z,38.20
2023-05-09T09:28:07.723Z,37.10
2023-05-09T09:30:35.797Z,37.00
2023-05-09T09:33:07.839Z,38.40
2023-05-09T09:35:40.426Z,39.60
2023-05-09T09:38:08.277Z,37.20
2023-05-09T09:40:39.204Z,38.80
2023-05-09T09:43:08.068Z,39.50
2023-05-09T09:45:36.397Z,38.50
2023-05-09T09:48:07.961Z,37.10
2023-05-09T09:50:36.027Z,37.30
2023-05-09T09:53:03.930Z,37.00
2023-05-09T09:55:33.076Z,36.70
2023-05-09T09:58:01.408Z,37.00
2023-05-09T10:00:30.215Z,36.10
2023-05-09T10:02:59.419Z,37.00
2023-05-09T10:05:30.166Z,38.00
2023-05-09T10:07:59.645Z,38.50
2023-05-09T10:10:29.213Z,39.90
2023-05-09T10:12:59.337Z,39.90
2023-05-09T10:15:33.471Z,40.00
2023-05-09T10:18:08.635Z,40.60
2023-05-09T10:20:41.169Z,39.90
2023-05-09T10:23:11.938Z,38.90
2023-05-09T10:25:45.634Z,38.80
2023-05-09T10:28:16.298Z,38.50
2023-05-09T10:30:54.949Z,38.50
2023-05-09T10:33:28.578Z,38.60
2023-05-09T10:35:59.909Z,38.00
2023-05-09T10:38:28.182Z,37.90
2023-05-09T10:40:57.578Z,38.10
2023-05-09T10:43:25.523Z,36.80
2023-05-09T10:45:54.230Z,35.40
2023-05-09T10:48:24.520Z,35.60
2023-05-09T10:50:53.485Z,36.90
2023-05-09T10:53:24.362Z,36.50
2023-05-09T10:55:56.365Z,36.00
2023-05-09T10:58:28.450Z,31.80
2023-05-09T11:00:58.297Z,28.70
2023-05-09T11:03:27.496Z,29.00
2023-05-09T11:05:57.267Z,31.50
2023-05-09T11:08:28.724Z,32.80
2023-05-09T11:10:57.510Z,34.20
2023-05-09T11:13:27.329Z,34.00
2023-05-09T11:16:12.387Z,33.60
2023-05-09T11:18:52.974Z,34.50
2023-05-09T11:21:22.308Z,34.30
2023-05-09T11:23:54.500Z,34.10
2023-05-09T11:26:24.613Z,32.30
2023-05-09T11:28:56.748Z,30.40
2023-05-09T11:31:24.904Z,30.30
2023-05-09T11:33:58.199Z,30.30
2023-05-09T11:36:32.087Z,29.80
2023-05-09T11:39:07.274Z,30.20
2023-05-09T11:41:41.129Z,30.50
2023-05-09T11:44:16.870Z,31.20
2023-05-09T11:46:44.930Z,31.40
2023-05-09T11:49:13.134Z,31.20
2023-05-09T11:51:41.584Z,31.00
2023-05-09T11:54:13.626Z,30.60
2023-05-09T11:56:42.672Z,29.30
2023-05-09T11:59:13.136Z,28.50
2023-05-09T12:01:41.276Z,27.70
2023-05-09T12:04:10.875Z,26.20
2023-05-09T12:06:38.922Z,25.40
2023-05-09T12:09:09.055Z,24.80
2023-05-09T12:11:38.374Z,24.80
2023-05-09T12:14:06.356Z,24.40
2023-05-09T12:16:34.482Z,25.00
2023-05-09T12:19:02.521Z,24.50
2023-05-09T12:21:30.383Z,24.30
2023-05-09T12:23:58.312Z,23.70
2023-05-09T12:26:27.064Z,23.70
2023-05-09T12:28:56.767Z,24.00
2023-05-09T12:31:24.894Z,24.20
2023-05-09T12:33:53.384Z,23.80
2023-05-09T12:36:21.912Z,23.60
2023-05-09T12:38:56.090Z,23.70
2023-05-09T12:43:56.922Z,23.70
2023-05-09T12:46:24.974Z,23.50
2023-05-09T12:48:52.964Z,23.20
2023-05-09T12:51:22.138Z,22.80
2023-05-09T12:53:50.779Z,22.70
2023-05-09T12:56:20.271Z,22.80
2023-05-09T12:58:53.112Z,22.60
2023-05-09T13:01:24.520Z,22.70
2023-05-09T13:03:53.069Z,22.80
2023-05-09T13:06:21.320Z,22.30
2023-05-09T13:09:00.253Z,22.30
2023-05-09T13:11:28.716Z,22.30
2023-05-09T13:13:56.623Z,22.70
2023-05-09T13:16:25.996Z,23.20
2023-05-09T13:18:53.995Z,23.40
2023-05-09T13:21:21.844Z,22.90
2023-05-09T13:23:51.145Z,22.50
2023-05-09T13:26:19.047Z,22.30
2023-05-09T13:28:46.999Z,22.40
2023-05-09T13:31:15.236Z,22.40
2023-05-09T13:33:44.585Z,22.40
2023-05-09T13:36:12.639Z,22.40
2023-05-09T13:38:40.877Z,22.40
2023-05-09T13:41:09.537Z,22.30
2023-05-09T13:43:38.324Z,22.10
2023-05-09T13:46:06.350Z,22.20
2023-05-09T13:48:34.385Z,22.00
2023-05-09T13:51:06.181Z,21.90
2023-05-09T13:53:34.079Z,22.20
2023-05-09T13:56:01.974Z,22.00
2023-05-09T13:58:29.914Z,22.20
2023-05-09T14:00:57.981Z,21.80
2023-05-09T14:03:26.721Z,22.30
2023-05-09T14:05:54.616Z,22.30
2023-05-09T14:08:24.215Z,22.30
2023-05-09T14:10:52.106Z,22.40
2023-05-09T14:13:20.073Z,22.90
2023-05-09T14:15:48.005Z,22.50
2023-05-09T14:18:18.565Z,22.50
2023-05-09T14:20:49.112Z,22.50
2023-05-09T14:23:17.150Z,22.30
2023-05-09T14:25:46.391Z,22.10
2023-05-09T14:28:14.712Z,22.10
2023-05-09T14:30:42.910Z,22.00
2023-05-09T14:33:11.141Z,22.10
2023-05-09T14:35:41.278Z,22.30
2023-05-09T14:38:09.707Z,22.70
2023-05-09T14:40:37.672Z,22.50
2023-05-09T14:43:07.332Z,22.40
2023-05-09T14:45:35.257Z,21.90
2023-05-09T14:48:04.192Z,21.80
2023-05-09T14:50:33.342Z,21.70
2023-05-09T14:53:02.051Z,22.00
2023-05-09T14:55:31.331Z,22.00
2023-05-09T14:58:00.875Z,21.70
2023-05-09T15:00:31.009Z,21.60
2023-05-09T15:02:58.944Z,21.70
2023-05-09T15:05:26.847Z,21.70
2023-05-09T15:07:54.765Z,21.80
2023-05-09T15:10:22.947Z,21.60
2023-05-09T15:12:50.951Z,21.50
2023-05-09T15:15:20.593Z,21.60
2023-05-09T15:17:49.872Z,21.60
2023-05-09T15:20:18.563Z,21.70
2023-05-09T15:22:47.486Z,21.50
2023-05-09T15:25:16.318Z,21.30
2023-05-09T15:27:44.753Z,21.30
2023-05-09T15:30:13.639Z,21.20
2023-05-09T15:32:41.732Z,21.20
2023-05-09T15:35:13.826Z,21.30
2023-05-09T15:37:41.798Z,21.30
2023-05-09T15:40:10.362Z,21.20
2023-05-09T15:42:39.621Z,21.20
2023-05-09T15:45:08.797Z,21.00
2023-05-09T15:47:36.966Z,20.90
2023-05-09T15:50:05.214Z,21.00
2023-05-09T15:52:34.496Z,21.00
2023-05-09T15:55:02.900Z,20.80
2023-05-09T15:57:30.777Z,20.80
2023-05-09T15:59:58.664Z,21.00
2023-05-09T16:02:28.392Z,21.10
2023-05-09T16:04:57.009Z,21.00
2023-05-09T16:07:27.673Z,20.90
2023-05-09T16:09:58.110Z,21.10
2023-05-09T16:12:27.058Z,21.00
2023-05-09T16:14:55.208Z,21.00
2023-05-09T16:17:24.402Z,21.10
2023-05-09T16:19:52.551Z,21.10
2023-05-09T16:22:20.466Z,20.80
2023-05-09T16:24:49.139Z,20.70
2023-05-09T16:27:19.426Z,20.70
2023-05-09T16:29:47.388Z,20.70
2023-05-09T16:32:15.235Z,20.60
2023-05-09T16:34:43.436Z,20.60
2023-05-09T16:37:11.438Z,20.60
2023-05-09T16:39:39.360Z,20.40
2023-05-09T16:42:07.438Z,20.30
2023-05-09T16:44:36.885Z,20.20
2023-05-09T16:47:04.932Z,20.10
2023-05-09T16:49:32.848Z,20.00
2023-05-09T16:52:00.713Z,19.90
2023-05-09T16:54:28.778Z,19.90
2023-05-09T16:56:57.750Z,19.80
2023-05-09T16:59:25.793Z,19.80
2023-05-09T17:01:57.662Z,19.70
2023-05-09T17:04:26.182Z,19.80
2023-05-09T17:06:54.120Z,19.70
2023-05-09T17:09:22.030Z,19.60
2023-05-09T17:11:49.990Z,19.50
2023-05-09T17:14:18.020Z,19.50
2023-05-09T17:16:46.208Z,19.40
2023-05-09T17:19:16.457Z,19.30
2023-05-09T17:21:44.616Z,19.20
2023-05-09T17:24:12.566Z,19.20
2023-05-09T17:26:40.482Z,19.10
2023-05-09T17:29:08.614Z,19.10
2023-05-09T17:31:38.054Z,18.90
2023-05-09T17:34:05.995Z,18.90
2023-05-09T17:36:40.961Z,18.90
2023-05-09T17:39:09.114Z,18.90
2023-05-09T17:41:37.259Z,18.90
2023-05-09T17:44:05.947Z,18.70
2023-05-09T17:46:36.895Z,18.60
2023-05-09T17:49:07.689Z,18.60
2023-05-09T17:51:37.701Z,18.60
2023-05-09T17:54:06.041Z,18.70
2023-05-09T17:56:34.064Z,18.60
2023-05-09T17:59:06.650Z,18.50
2023-05-09T18:01:35.987Z,18.40
2023-05-09T18:04:04.037Z,18.40
2023-05-09T18:06:32.148Z,18.30
2023-05-09T18:09:01.698Z,18.20
2023-05-09T18:11:29.684Z,18.10
2023-05-09T18:13:57.846Z,18.10
2023-05-09T18:16:26.029Z,18.10
2023-05-09T18:19:14.013Z,18.00
2023-05-09T18:21:41.985Z,17.90
2023-05-09T18:24:11.576Z,17.80
2023-05-09T18:26:39.934Z,17.70
2023-05-09T18:29:09.535Z,17.70
2023-05-09T18:31:38.819Z,17.60
2023-05-09T18:34:06.871Z,17.50
2023-05-09T18:36:35.073Z,17.40
2023-05-09T18:39:03.014Z,17.40
2023-05-09T18:41:33.928Z,17.30
2023-05-09T18:44:01.844Z,17.30
2023-05-09T18:46:31.708Z,17.20
2023-05-09T18:49:00.638Z,17.20
2023-05-09T18:51:30.068Z,17.10
2023-05-09T18:53:58.111Z,17.10
2023-05-09T18:56:26.295Z,17.00
2023-05-09T18:58:55.616Z,17.00
2023-05-09T19:01:24.250Z,17.00
2023-05-09T19:03:54.259Z,17.00
2023-05-09T19:06:24.009Z,16.90
2023-05-09T19:08:52.041Z,16.90
2023-05-09T19:11:20.251Z,16.90
2023-05-09T19:13:49.319Z,16.80
2023-05-09T19:16:24.661Z,16.80
2023-05-09T19:18:54.935Z,16.80
2023-05-09T19:21:23.537Z,16.70
2023-05-09T19:23:51.426Z,16.60
2023-05-09T19:26:22.188Z,16.60
2023-05-09T19:28:50.254Z,16.60
2023-05-09T19:31:20.427Z,16.60
2023-05-09T19:33:49.479Z,16.40
2023-05-09T19:36:17.879Z,16.40
2023-05-09T19:38:46.070Z,16.40
2023-05-09T19:41:14.871Z,16.40
2023-05-09T19:43:42.889Z,16.40
2023-05-09T19:46:10.773Z,16.40
2023-05-09T19:48:40.056Z,16.40
2023-05-09T19:51:12.122Z,16.40
2023-05-09T19:53:40.948Z,16.40
2023-05-09T19:56:09.859Z,16.40
2023-05-09T19:58:37.918Z,16.30
2023-05-09T20:01:07.087Z,16.30
2023-05-09T20:03:36.948Z,16.30
2023-05-09T20:06:07.678Z,16.30
2023-05-09T20:08:35.591Z,16.30
2023-05-09T20:11:03.481Z,16.30
2023-05-09T20:13:31.692Z,16.20
2023-05-09T20:16:00.143Z,16.20
2023-05-09T20:18:28.459Z,16.10
2023-05-09T20:20:56.317Z,16.20
2023-05-09T20:23:25.597Z,16.20
2023-05-09T20:25:53.594Z,16.30
2023-05-09T20:28:22.396Z,16.20
2023-05-09T20:30:50.867Z,16.20
2023-05-09T20:33:18.979Z,16.20
2023-05-09T20:35:49.092Z,16.00
2023-05-09T20:38:17.175Z,16.10
2023-05-09T20:40:47.131Z,16.10
2023-05-09T20:43:15.269Z,16.20
2023-05-09T20:45:43.414Z,16.20
2023-05-09T20:48:11.384Z,16.20
2023-05-09T20:50:39.241Z,16.00
2023-05-09T20:53:07.117Z,15.80
2023-05-09T20:55:35.637Z,15.70
2023-05-09T20:58:05.125Z,15.60
2023-05-09T21:00:33.353Z,15.60
2023-05-09T21:03:01.556Z,15.60
2023-05-09T21:05:29.494Z,15.70
2023-05-09T21:07:57.327Z,15.70
2023-05-09T21:10:25.906Z,15.60
2023-05-09T21:12:53.842Z,15.50
2023-05-09T21:15:24.551Z,15.40
2023-05-09T21:17:52.528Z,15.20
2023-05-09T21:20:20.472Z,15.10
2023-05-09T21:22:48.408Z,15.00
2023-05-09T21:25:17.665Z,14.90
2023-05-09T21:27:46.168Z,14.80
2023-05-09T21:30:14.453Z,14.80
2023-05-09T21:32:43.976Z,14.70
2023-05-09T21:35:13.110Z,14.50
2023-05-09T21:37:42.713Z,14.40
2023-05-09T21:40:11.324Z,14.30
2023-05-09T21:42:40.222Z,14.30
2023-05-09T21:45:09.255Z,14.20
2023-05-09T21:47:39.495Z,14.10
2023-05-09T21:50:10.563Z,14.00
2023-05-09T21:52:38.485Z,14.00
2023-05-09T21:55:06.792Z,14.00
2023-05-09T21:57:34.691Z,13.90
2023-05-09T22:00:05.153Z,13.90
2023-05-09T22:02:42.913Z,13.90
2023-05-09T22:05:12.912Z,13.80
2023-05-09T22:07:40.823Z,13.70
2023-05-09T22:10:09.748Z,13.70
2023-05-09T22:12:37.603Z,13.60
2023-05-09T22:15:06.564Z,13.60
2023-05-09T22:17:34.567Z,13.60
2023-05-09T22:20:02.602Z,13.50
2023-05-09T22:22:33.167Z,13.40
2023-05-09T22:25:01.146Z,13.50
2023-05-09T22:27:29.083Z,13.50
2023-05-09T22:29:57.032Z,13.50
2023-05-09T22:32:24.937Z,13.40
2023-05-09T22:34:54.246Z,13.40
2023-05-09T22:37:22.344Z,13.40
2023-05-09T22:39:51.546Z,13.40
2023-05-09T22:42:19.419Z,13.40
2023-05-09T22:44:49.653Z,13.40
2023-05-09T22:47:17.617Z,13.50
2023-05-09T22:49:46.014Z,13.50
2023-05-09T22:52:13.923Z,13.40
2023-05-09T22:54:42.136Z,13.50
2023-05-09T22:57:11.529Z,13.50
2023-05-09T22:59:39.477Z,13.60
2023-05-09T23:02:07.460Z,13.50
2023-05-09T23:04:36.491Z,13.50
2023-05-09T23:07:04.369Z,13.50
2023-05-09T23:09:32.279Z,13.60
2023-05-09T23:12:01.126Z,13.60
2023-05-09T23:14:30.611Z,13.60
2023-05-09T23:16:59.317Z,13.60
2023-05-09T23:19:27.194Z,13.50
2023-05-09T23:21:55.263Z,13.50
2023-05-09T23:24:23.150Z,13.40
2023-05-09T23:26:51.028Z,13.40
2023-05-09T23:29:18.889Z,13.50
2023-05-09T23:31:48.229Z,13.50
2023-05-09T23:34:16.220Z,13.50
2023-05-09T23:36:44.071Z,13.50
2023-05-09T23:39:12.068Z,13.50
2023-05-09T23:41:39.958Z,13.50
2023-05-09T23:44:07.990Z,13.60
2023-05-09T23:46:36.003Z,13.50
2023-05-09T23:49:05.253Z,13.50
2023-05-09T23:51:33.115Z,13.50
2023-05-09T23:54:01.025Z,13.50
2023-05-09T23:56:28.938Z,13.40
2023-05-09T23:58:56.781Z,13.40
